createdAt,value
2022-08-08T00:00:53.877Z,76.15
2022-08-08T00:02:55.355Z,76.87
2022-08-08T00:06:02.847Z,76.45
2022-08-08T00:08:51.549Z,76.21
2022-08-08T00:12:07.295Z,76.30
2022-08-08T00:14:57.046Z,76.82
2022-08-08T00:17:58.778Z,77.81
2022-08-08T00:20:42.581Z,77.92
2022-08-08T00:23:20.777Z,77.66
2022-08-08T00:25:56.557Z,77.29
2022-08-08T00:28:35.496Z,76.99
2022-08-08T00:32:21.039Z,77.26
2022-08-08T00:34:47.313Z,77.32
2022-08-08T00:37:45.348Z,77.35
2022-08-08T00:41:07.956Z,77.20
2022-08-08T00:43:45.934Z,77.47
2022-08-08T00:46:32.176Z,77.74
2022-08-08T00:50:09.178Z,77.74
2022-08-08T00:53:14.203Z,77.26
2022-08-08T00:56:22.520Z,77.19
2022-08-08T00:59:18.708Z,77.05
2022-08-08T01:03:57.501Z,77.07
2022-08-08T01:05:58.452Z,77.54
2022-08-08T01:08:53.725Z,78.24
2022-08-08T01:11:38.529Z,77.73
2022-08-08T01:14:57.243Z,78.27
2022-08-08T01:17:53.884Z,78.19
2022-08-08T01:20:51.325Z,78.72
2022-08-08T01:24:05.358Z,78.42
2022-08-08T01:27:06.995Z,78.19
2022-08-08T01:30:21.964Z,78.50
2022-08-08T01:33:27.959Z,78.94
2022-08-08T01:36:34.428Z,79.03
2022-08-08T01:39:23.709Z,79.29
2022-08-08T01:42:36.135Z,78.91
2022-08-08T01:45:39.041Z,79.06
2022-08-08T01:48:30.862Z,79.18
2022-08-08T01:52:04.495Z,79.87
2022-08-08T01:55:19.204Z,80.45
2022-08-08T01:58:12.111Z,80.17
2022-08-08T02:01:03.463Z,79.75
2022-08-08T02:04:01.804Z,79.62
2022-08-08T02:06:31.615Z,79.61
2022-08-08T02:09:15.960Z,79.61
2022-08-08T02:11:59.837Z,79.35
2022-08-08T02:14:55.548Z,79.80
2022-08-08T02:17:54.059Z,79.57
2022-08-08T02:21:13.335Z,79.53
2022-08-08T02:23:56.675Z,79.52
2022-08-08T02:26:36.125Z,79.81
2022-08-08T02:29:46.920Z,79.70
2022-08-08T02:32:32.377Z,80.36
2022-08-08T02:35:07.971Z,80.21
2022-08-08T02:37:57.096Z,80.46
2022-08-08T02:40:30.886Z,80.66
2022-08-08T02:44:34.926Z,80.22
2022-08-08T02:47:00.410Z,80.69
2022-08-08T02:49:51.077Z,80.75
2022-08-08T02:52:39.789Z,81.00
2022-08-08T02:55:10.489Z,81.08
2022-08-08T02:57:51.308Z,81.00
2022-08-08T03:00:31.713Z,81.01
2022-08-08T03:03:46.208Z,81.34
2022-08-08T03:06:34.755Z,81.58
2022-08-08T03:09:42.417Z,81.53
2022-08-08T03:12:36.680Z,81.95
2022-08-08T03:16:00.168Z,82.69
2022-08-08T03:18:52.810Z,82.40
2022-08-08T03:21:19.327Z,82.51
2022-08-08T03:23:59.283Z,82.76
2022-08-08T03:26:42.689Z,82.88
2022-08-08T03:29:20.797Z,83.08
2022-08-08T03:32:22.992Z,82.95
2022-08-08T03:34:56.624Z,82.74
2022-08-08T03:37:59.926Z,82.99
2022-08-08T03:40:28.922Z,82.92
2022-08-08T03:42:58.699Z,82.47
2022-08-08T03:46:05.321Z,82.61
2022-08-08T03:49:10.152Z,82.66
2022-08-08T03:51:16.923Z,82.71
2022-08-08T03:53:47.351Z,82.44
2022-08-08T03:56:31.504Z,82.54
2022-08-08T03:58:59.335Z,82.44
2022-08-08T04:02:12.616Z,82.59
2022-08-08T04:04:23.085Z,83.07
2022-08-08T04:07:01.284Z,82.51
2022-08-08T04:09:30.852Z,83.10
2022-08-08T04:12:15.918Z,82.42
2022-08-08T04:14:45.340Z,82.13
2022-08-08T04:17:22.836Z,82.03
2022-08-08T04:20:02.047Z,81.96
2022-08-08T04:22:32.119Z,82.59
2022-08-08T04:25:02.260Z,83.02
2022-08-08T04:28:03.381Z,83.41
2022-08-08T04:30:17.908Z,83.35
2022-08-08T04:32:47.918Z,82.86
2022-08-08T04:35:17.551Z,81.82
2022-08-08T04:37:47.039Z,81.58
2022-08-08T04:40:17.839Z,81.17
2022-08-08T04:42:55.846Z,80.84
2022-08-08T04:45:23.693Z,81.14
2022-08-08T04:47:53.363Z,80.83
2022-08-08T04:50:24.300Z,80.61
2022-08-08T04:53:01.218Z,80.32
2022-08-08T04:55:37.812Z,80.38
2022-08-08T04:58:17.592Z,80.44
2022-08-08T05:00:45.037Z,80.51
2022-08-08T05:03:18.942Z,80.12
2022-08-08T05:06:01.363Z,80.16
2022-08-08T05:08:40.390Z,80.53
2022-08-08T05:11:08.568Z,80.32
2022-08-08T05:13:36.947Z,79.86
2022-08-08T05:16:48.117Z,80.45
2022-08-08T05:20:04.226Z,80.12
2022-08-08T05:22:00.479Z,81.20
2022-08-08T05:24:27.614Z,81.22
2022-08-08T05:26:54.326Z,80.75
2022-08-08T05:29:20.996Z,80.54
2022-08-08T05:32:02.995Z,80.83
2022-08-08T05:34:47.216Z,80.11
2022-08-08T05:37:19.800Z,80.61
2022-08-08T05:39:52.853Z,80.08
2022-08-08T05:42:28.568Z,80.20
2022-08-08T05:45:00.870Z,80.92
2022-08-08T05:47:59.825Z,79.71
2022-08-08T05:50:30.081Z,79.96
2022-08-08T05:53:54.696Z,80.09
2022-08-08T05:56:11.418Z,80.29
2022-08-08T05:58:57.982Z,80.08
2022-08-08T06:01:57.397Z,79.64
2022-08-08T06:04:23.432Z,78.42
2022-08-08T06:07:00.491Z,70.70
2022-08-08T06:09:58.814Z,59.82
2022-08-08T06:12:29.952Z,51.67
2022-08-08T06:15:00.232Z,46.37
2022-08-08T06:17:51.520Z,44.82
2022-08-08T06:20:16.371Z,41.68
2022-08-08T06:22:46.264Z,41.14
2022-08-08T06:25:16.129Z,39.64
2022-08-08T06:27:48.299Z,39.06
2022-08-08T06:30:20.254Z,36.03
2022-08-08T06:32:57.525Z,37.13
2022-08-08T06:36:08.636Z,37.69
2022-08-08T06:38:18.736Z,37.39
2022-08-08T06:40:53.908Z,35.81
2022-08-08T06:43:28.515Z,34.88
2022-08-08T06:46:00.546Z,35.66
2022-08-08T06:48:27.366Z,35.12
2022-08-08T06:50:55.616Z,34.33
2022-08-08T06:53:22.890Z,34.98
2022-08-08T06:56:00.483Z,32.11
2022-08-08T06:58:30.560Z,30.71
2022-08-08T07:01:01.645Z,33.92
2022-08-08T07:04:40.605Z,30.34
2022-08-08T07:06:54.583Z,29.37
2022-08-08T07:09:27.123Z,29.18
2022-08-08T07:12:09.029Z,26.78
2022-08-08T07:14:58.104Z,27.49
2022-08-08T07:17:56.524Z,25.87
2022-08-08T07:20:21.250Z,24.58
2022-08-08T07:23:04.543Z,21.80
2022-08-08T07:25:38.762Z,21.92
2022-08-08T07:28:18.822Z,20.09
2022-08-08T07:30:47.051Z,19.63
2022-08-08T07:33:17.346Z,28.12
2022-08-08T07:35:48.468Z,25.02
2022-08-08T07:38:18.319Z,23.86
2022-08-08T07:40:49.070Z,22.55
2022-08-08T07:43:23.150Z,21.64
2022-08-08T07:46:18.396Z,21.24
2022-08-08T07:48:49.186Z,26.40
2022-08-08T07:51:24.319Z,22.62
2022-08-08T07:54:24.023Z,21.81
2022-08-08T07:57:17.064Z,20.67
2022-08-08T08:00:13.216Z,22.40
2022-08-08T08:03:11.132Z,27.79
2022-08-08T08:05:43.427Z,24.23
2022-08-08T08:08:20.528Z,21.51
2022-08-08T08:10:51.718Z,23.06
2022-08-08T08:13:25.424Z,27.07
2022-08-08T08:16:12.040Z,22.23
2022-08-08T08:18:55.882Z,22.83
2022-08-08T08:21:43.949Z,23.23
2022-08-08T08:24:15.641Z,22.32
2022-08-08T08:26:52.453Z,23.89
2022-08-08T08:29:19.649Z,25.69
2022-08-08T08:31:53.970Z,28.45
2022-08-08T08:34:24.297Z,28.76
2022-08-08T08:36:58.802Z,26.12
2022-08-08T08:39:59.586Z,27.47
2022-08-08T08:42:14.701Z,30.58
2022-08-08T08:44:46.689Z,24.56
2022-08-08T08:47:18.614Z,28.01
2022-08-08T08:49:48.519Z,26.76
2022-08-08T08:52:17.834Z,27.76
2022-08-08T08:54:48.894Z,23.55
2022-08-08T08:57:23.602Z,23.97
2022-08-08T09:00:00.258Z,22.38
2022-08-08T09:02:34.420Z,26.77
2022-08-08T09:05:05.047Z,23.70
2022-08-08T09:07:39.216Z,24.02
2022-08-08T09:10:23.140Z,23.18
2022-08-08T09:12:56.655Z,22.58
2022-08-08T09:15:41.072Z,26.06
2022-08-08T09:18:09.506Z,25.70
2022-08-08T09:22:01.009Z,21.89
2022-08-08T09:23:33.701Z,19.16
2022-08-08T09:26:18.817Z,22.54
2022-08-08T09:28:50.202Z,24.34
2022-08-08T09:31:42.234Z,22.76
2022-08-08T09:34:31.285Z,27.38
2022-08-08T09:37:28.825Z,30.75
2022-08-08T09:40:11.315Z,25.04
2022-08-08T09:42:44.449Z,26.85
2022-08-08T09:45:55.388Z,28.61
2022-08-08T09:48:16.274Z,25.08
2022-08-08T09:50:50.741Z,25.04
2022-08-08T09:53:31.917Z,27.26
2022-08-08T09:56:22.843Z,28.43
2022-08-08T09:59:32.060Z,30.07
2022-08-08T10:01:59.490Z,27.77
2022-08-08T10:04:39.818Z,29.67
2022-08-08T10:07:17.052Z,28.72
2022-08-08T10:10:00.603Z,28.67
2022-08-08T10:12:53.382Z,25.63
2022-08-08T10:15:26.469Z,28.64
2022-08-08T10:18:10.096Z,28.44
2022-08-08T10:20:58.179Z,33.34
2022-08-08T10:23:50.800Z,24.78
2022-08-08T10:26:30.761Z,23.21
2022-08-08T10:29:20.868Z,21.86
2022-08-08T10:32:16.404Z,23.71
2022-08-08T10:35:00.315Z,29.74
2022-08-08T10:37:34.742Z,26.19
2022-08-08T10:40:17.009Z,24.37
2022-08-08T10:42:45.330Z,23.85
2022-08-08T10:45:16.102Z,29.01
2022-08-08T10:47:48.497Z,28.47
2022-08-08T10:50:20.433Z,26.78
2022-08-08T10:52:51.443Z,25.82
2022-08-08T10:55:39.413Z,25.97
2022-08-08T10:58:08.572Z,26.91
2022-08-08T11:00:48.836Z,27.61
2022-08-08T11:03:37.125Z,29.57
2022-08-08T11:06:12.368Z,30.29
2022-08-08T11:08:50.047Z,32.34
2022-08-08T11:11:59.863Z,34.16
2022-08-08T11:14:12.402Z,32.76
2022-08-08T11:16:46.696Z,31.41
2022-08-08T11:19:15.747Z,33.97
2022-08-08T11:21:55.549Z,32.48
2022-08-08T11:24:26.215Z,33.26
2022-08-08T11:26:57.665Z,33.24
2022-08-08T11:29:41.596Z,33.51
2022-08-08T11:32:15.417Z,32.85
2022-08-08T11:35:23.554Z,33.89
2022-08-08T11:38:39.584Z,32.40
2022-08-08T11:40:27.297Z,32.09
2022-08-08T11:43:00.601Z,31.48
2022-08-08T11:45:28.116Z,31.31
2022-08-08T11:48:04.644Z,31.33
2022-08-08T11:50:34.060Z,31.66
2022-08-08T11:53:05.834Z,32.59
2022-08-08T11:55:36.410Z,31.40
2022-08-08T11:58:14.375Z,32.30
2022-08-08T12:00:55.297Z,31.79
2022-08-08T12:03:25.524Z,32.73
2022-08-08T12:05:57.774Z,33.65
2022-08-08T12:08:36.573Z,33.96
2022-08-08T12:11:23.294Z,33.13
2022-08-08T12:14:04.641Z,34.93
2022-08-08T12:16:39.558Z,34.94
2022-08-08T12:19:13.505Z,33.84
2022-08-08T12:21:59.353Z,33.69
2022-08-08T12:24:28.175Z,33.29
2022-08-08T12:26:56.991Z,34.05
2022-08-08T12:29:42.007Z,34.18
2022-08-08T12:32:19.958Z,32.25
2022-08-08T12:35:01.376Z,33.36
2022-08-08T12:37:41.206Z,33.56
2022-08-08T12:40:22.868Z,32.64
2022-08-08T12:42:52.069Z,33.10
2022-08-08T12:45:54.127Z,31.52
2022-08-08T12:48:37.403Z,30.92
2022-08-08T12:51:07.812Z,31.74
2022-08-08T12:53:58.997Z,33.51
2022-08-08T12:56:33.913Z,32.48
2022-08-08T12:59:01.101Z,31.27
2022-08-08T13:01:38.069Z,31.63
2022-08-08T13:04:18.515Z,32.01
2022-08-08T13:07:17.019Z,31.56
2022-08-08T13:10:04.526Z,30.94
2022-08-08T13:12:35.997Z,32.03
2022-08-08T13:15:09.692Z,31.99
2022-08-08T13:18:07.554Z,31.09
2022-08-08T13:20:27.110Z,31.65
2022-08-08T13:23:31.135Z,31.08
2022-08-08T13:25:43.642Z,31.76
2022-08-08T13:28:17.510Z,31.67
2022-08-08T13:30:45.471Z,31.63
2022-08-08T13:33:18.370Z,34.02
2022-08-08T13:35:50.752Z,32.44
2022-08-08T13:38:18.140Z,33.51
2022-08-08T13:40:46.102Z,34.53
2022-08-08T13:43:16.705Z,35.70
2022-08-08T13:45:47.207Z,34.25
2022-08-08T13:48:25.868Z,33.49
2022-08-08T13:50:57.590Z,32.10
2022-08-08T13:53:31.453Z,32.33
2022-08-08T13:56:02.349Z,31.27
2022-08-08T13:58:30.081Z,29.86
2022-08-08T14:00:57.223Z,31.12
2022-08-08T14:03:53.614Z,30.41
2022-08-08T14:06:32.380Z,29.72
2022-08-08T14:09:25.253Z,30.73
2022-08-08T14:11:48.811Z,29.62
2022-08-08T14:14:20.520Z,28.67
2022-08-08T14:16:52.394Z,28.05
2022-08-08T14:19:28.018Z,29.81
2022-08-08T14:22:22.401Z,28.97
2022-08-08T14:25:15.339Z,28.85
2022-08-08T14:27:59.451Z,29.81
2022-08-08T14:30:34.392Z,28.38
2022-08-08T14:33:01.408Z,28.67
2022-08-08T14:35:36.111Z,28.12
2022-08-08T14:38:33.607Z,27.03
2022-08-08T14:40:59.294Z,27.18
2022-08-08T14:44:02.204Z,28.59
2022-08-08T14:46:17.238Z,30.96
2022-08-08T14:48:57.287Z,30.83
2022-08-08T14:51:47.190Z,31.08
2022-08-08T14:54:13.914Z,30.05
2022-08-08T14:56:42.946Z,29.82
2022-08-08T14:59:21.303Z,28.31
2022-08-08T15:01:58.723Z,27.40
2022-08-08T15:04:26.472Z,29.86
2022-08-08T15:06:53.510Z,28.62
2022-08-08T15:09:21.786Z,27.31
2022-08-08T15:11:53.053Z,26.42
2022-08-08T15:14:26.460Z,26.74
2022-08-08T15:16:55.029Z,26.15
2022-08-08T15:19:23.933Z,26.57
2022-08-08T15:21:55.171Z,29.11
2022-08-08T15:24:24.520Z,28.98
2022-08-08T15:26:58.750Z,28.73
2022-08-08T15:29:38.875Z,29.20
2022-08-08T15:32:20.645Z,28.74
2022-08-08T15:34:48.093Z,28.40
2022-08-08T15:37:14.842Z,27.94
2022-08-08T15:39:43.985Z,28.45
2022-08-08T15:42:31.471Z,28.26
2022-08-08T15:45:02.541Z,27.44
2022-08-08T15:47:31.450Z,28.21
2022-08-08T15:49:59.113Z,29.01
2022-08-08T15:52:25.995Z,28.57
2022-08-08T15:54:53.160Z,27.98
2022-08-08T15:57:21.165Z,28.45
2022-08-08T16:00:18.024Z,28.40
2022-08-08T16:02:35.575Z,27.54
2022-08-08T16:05:03.881Z,28.17
2022-08-08T16:07:39.592Z,28.39
2022-08-08T16:13:11.641Z,27.81
2022-08-08T16:13:32.448Z,27.89
2022-08-08T16:15:57.478Z,27.81
2022-08-08T16:18:26.689Z,28.01
2022-08-08T16:20:53.413Z,29.11
2022-08-08T16:23:26.943Z,28.02
2022-08-08T16:25:54.527Z,27.50
2022-08-08T16:28:35.938Z,27.67
2022-08-08T16:31:07.678Z,28.88
2022-08-08T16:33:38.489Z,28.58
2022-08-08T16:36:09.137Z,28.39
2022-08-08T16:38:44.498Z,28.21
2022-08-08T16:41:20.096Z,27.79
2022-08-08T16:43:50.664Z,28.13
2022-08-08T16:46:43.448Z,28.10
2022-08-08T16:49:08.003Z,27.66
2022-08-08T16:55:03.840Z,28.24
2022-08-08T16:55:06.675Z,28.17
2022-08-08T16:57:23.514Z,28.10
2022-08-08T17:00:06.540Z,28.52
2022-08-08T17:02:39.684Z,27.72
2022-08-08T17:05:08.419Z,28.05
2022-08-08T17:07:37.819Z,28.76
2022-08-08T17:10:08.946Z,28.27
2022-08-08T17:12:36.693Z,28.09
2022-08-08T17:15:17.463Z,27.95
2022-08-08T17:18:02.772Z,28.33
2022-08-08T17:20:32.065Z,27.99
2022-08-08T17:23:18.270Z,27.79
2022-08-08T17:25:52.226Z,27.51
2022-08-08T17:28:34.349Z,27.61
2022-08-08T17:31:39.335Z,28.40
2022-08-08T17:34:49.090Z,28.28
2022-08-08T17:37:00.172Z,28.59
2022-08-08T17:40:04.163Z,29.10
2022-08-08T17:42:12.490Z,30.87
2022-08-08T17:44:39.928Z,32.35
2022-08-08T17:47:16.316Z,33.29
2022-08-08T17:49:52.868Z,33.43
2022-08-08T17:52:23.240Z,33.59
2022-08-08T17:54:51.903Z,33.61
2022-08-08T17:57:23.127Z,33.45
2022-08-08T17:59:51.669Z,33.70
2022-08-08T18:02:28.432Z,33.38
2022-08-08T18:04:58.393Z,33.38
2022-08-08T18:08:02.454Z,33.37
2022-08-08T18:10:16.526Z,33.66
2022-08-08T18:12:45.933Z,33.18
2022-08-08T18:15:13.243Z,33.62
2022-08-08T18:18:04.935Z,33.49
2022-08-08T18:20:43.080Z,33.34
2022-08-08T18:23:14.804Z,33.46
2022-08-08T18:25:43.489Z,32.98
2022-08-08T18:28:13.493Z,32.88
2022-08-08T18:30:42.640Z,33.26
2022-08-08T18:33:36.697Z,32.88
2022-08-08T18:36:03.198Z,33.23
2022-08-08T18:38:32.344Z,33.11
2022-08-08T18:41:03.094Z,33.30
2022-08-08T18:43:43.143Z,33.35
2022-08-08T18:46:54.105Z,33.33
2022-08-08T18:48:58.852Z,33.77
2022-08-08T18:51:53.167Z,35.84
2022-08-08T18:54:22.679Z,35.61
2022-08-08T18:56:57.113Z,35.84
2022-08-08T18:59:23.960Z,37.13
2022-08-08T19:02:25.390Z,36.70
2022-08-08T19:04:38.037Z,37.62
2022-08-08T19:07:05.117Z,38.93
2022-08-08T19:09:49.552Z,40.40
2022-08-08T19:12:19.334Z,40.27
2022-08-08T19:14:53.162Z,40.44
2022-08-08T19:17:28.719Z,40.48
2022-08-08T19:20:02.273Z,40.88
2022-08-08T19:22:29.996Z,40.31
2022-08-08T19:25:05.091Z,40.16
2022-08-08T19:27:55.747Z,40.76
2022-08-08T19:30:26.485Z,41.19
2022-08-08T19:32:54.000Z,41.50
2022-08-08T19:35:25.487Z,42.38
2022-08-08T19:38:11.131Z,42.58
2022-08-08T19:40:37.874Z,42.64
2022-08-08T19:43:11.769Z,43.11
2022-08-08T19:45:58.539Z,43.71
2022-08-08T19:48:29.068Z,44.17
2022-08-08T19:50:59.449Z,44.66
2022-08-08T19:53:51.698Z,44.73
2022-08-08T19:56:16.422Z,45.07
2022-08-08T19:58:52.878Z,45.77
2022-08-08T20:01:31.593Z,45.91
2022-08-08T20:04:08.624Z,46.62
2022-08-08T20:06:35.862Z,46.09
2022-08-08T20:09:04.607Z,46.37
2022-08-08T20:11:43.203Z,46.93
2022-08-08T20:14:32.312Z,46.75
2022-08-08T20:16:57.664Z,47.34
2022-08-08T20:19:34.822Z,47.69
2022-08-08T20:22:20.600Z,47.84
2022-08-08T20:24:53.610Z,47.92
2022-08-08T20:27:43.825Z,48.91
2022-08-08T20:30:10.745Z,49.25
2022-08-08T20:32:57.413Z,49.21
2022-08-08T20:35:57.170Z,49.35
2022-08-08T20:38:12.132Z,49.27
2022-08-08T20:40:40.933Z,49.57
2022-08-08T20:43:16.207Z,50.07
2022-08-08T20:45:57.399Z,49.70
2022-08-08T20:48:26.237Z,50.65
2022-08-08T20:50:55.865Z,50.75
2022-08-08T20:53:58.102Z,50.31
2022-08-08T20:56:09.624Z,49.92
2022-08-08T20:58:38.677Z,51.04
2022-08-08T21:01:10.936Z,51.17
2022-08-08T21:03:56.076Z,51.10
2022-08-08T21:06:52.613Z,51.23
2022-08-08T21:09:16.128Z,51.47
2022-08-08T21:11:52.169Z,51.50
2022-08-08T21:14:33.668Z,52.05
2022-08-08T21:17:06.278Z,52.31
2022-08-08T21:19:45.883Z,52.25
2022-08-08T21:22:15.482Z,52.85
2022-08-08T21:24:53.573Z,52.75
2022-08-08T21:27:38.727Z,52.82
2022-08-08T21:30:19.411Z,54.04
2022-08-08T21:32:52.272Z,54.03
2022-08-08T21:36:13.930Z,54.59
2022-08-08T21:38:18.081Z,54.49
2022-08-08T21:40:54.764Z,55.32
2022-08-08T21:43:33.200Z,54.95
2022-08-08T21:48:02.441Z,55.16
2022-08-08T21:48:53.571Z,54.85
2022-08-08T21:54:31.284Z,55.35
2022-08-08T21:54:32.000Z,55.28
2022-08-08T21:56:59.426Z,54.91
2022-08-08T21:59:28.513Z,55.45
2022-08-08T22:02:15.812Z,56.51
2022-08-08T22:04:42.880Z,56.11
2022-08-08T22:07:09.678Z,56.15
2022-08-08T22:09:43.602Z,56.45
2022-08-08T22:12:14.978Z,56.86
2022-08-08T22:14:49.813Z,56.97
2022-08-08T22:17:18.361Z,56.76
2022-08-08T22:20:10.914Z,57.20
2022-08-08T22:22:37.883Z,57.07
2022-08-08T22:25:17.705Z,57.03
2022-08-08T22:28:04.352Z,57.05
2022-08-08T22:30:42.434Z,57.58
2022-08-08T22:33:21.974Z,58.95
2022-08-08T22:36:04.612Z,58.62
2022-08-08T22:38:48.131Z,58.86
2022-08-08T22:41:21.763Z,59.66
2022-08-08T22:44:05.566Z,59.23
2022-08-08T22:46:34.554Z,58.92
2022-08-08T22:49:06.990Z,59.51
2022-08-08T22:51:42.769Z,59.72
2022-08-08T22:54:31.343Z,59.81
2022-08-08T22:57:00.372Z,59.87
2022-08-08T22:59:27.187Z,60.26
2022-08-08T23:02:12.570Z,59.96
2022-08-08T23:04:55.821Z,60.61
2022-08-08T23:07:51.430Z,60.78
2022-08-08T23:10:13.858Z,61.37
2022-08-08T23:12:48.928Z,60.93
2022-08-08T23:16:41.494Z,62.68
2022-08-08T23:18:12.083Z,63.73
2022-08-08T23:20:41.117Z,62.93
2022-08-08T23:23:10.507Z,63.10
2022-08-08T23:25:48.162Z,62.84
2022-08-08T23:28:17.653Z,62.67
2022-08-08T23:30:46.146Z,63.36
2022-08-08T23:33:18.916Z,63.25
2022-08-08T23:36:06.994Z,63.49
2022-08-08T23:38:33.261Z,63.18
2022-08-08T23:40:59.946Z,63.29
2022-08-08T23:43:31.691Z,63.15
2022-08-08T23:49:03.603Z,63.14
2022-08-08T23:49:15.245Z,63.00
2022-08-08T23:52:06.596Z,63.11
2022-08-08T23:54:43.007Z,63.25
2022-08-08T23:57:27.795Z,62.78
